createdAt,value
2018-09-10T00:00:15.844Z,101978.01
2018-09-10T00:02:43.501Z,101986.37
2018-09-10T00:05:11.199Z,101990.70
2018-09-10T00:07:38.977Z,101980.17
2018-09-10T00:10:06.681Z,101982.08
2018-09-10T00:12:34.346Z,101982.84
2018-09-10T00:15:02.062Z,101980.17
2018-09-10T00:17:29.760Z,101974.06
2018-09-10T00:19:58.516Z,101971.21
2018-09-10T00:22:26.182Z,101976.27
2018-09-10T00:24:53.870Z,101970.11
2018-09-10T00:27:21.845Z,101974.28
2018-09-10T00:29:49.829Z,101975.62
2018-09-10T00:32:17.490Z,101973.72
2018-09-10T00:34:45.498Z,101971.06
2018-09-10T00:37:13.156Z,101970.34
2018-09-10T00:39:40.869Z,101970.13
2018-09-10T00:42:08.577Z,101969.44
2018-09-10T00:44:36.283Z,101965.27
2018-09-10T00:47:04.294Z,101972.54
2018-09-10T00:49:31.977Z,101970.34
2018-09-10T00:51:59.667Z,101965.32
2018-09-10T00:54:27.364Z,101956.80
2018-09-10T00:56:55.029Z,101960.72
2018-09-10T00:59:22.697Z,101956.80
2018-09-10T01:01:50.373Z,101959.84
2018-09-10T01:04:28.485Z,101959.84
2018-09-10T01:06:56.408Z,101954.52
2018-09-10T01:09:24.337Z,101936.28
2018-09-10T01:11:52.275Z,101958.67
2018-09-10T01:14:20.205Z,101957.16
2018-09-10T01:16:47.913Z,101959.84
2018-09-10T01:19:15.776Z,101960.61
2018-09-10T01:21:43.468Z,101952.17
2018-09-10T01:24:11.229Z,101960.34
2018-09-10T01:26:38.909Z,101957.49
2018-09-10T01:29:06.586Z,101958.48
2018-09-10T01:31:34.304Z,101956.20
2018-09-10T01:34:07.808Z,101957.09
2018-09-10T01:36:35.501Z,101955.52
2018-09-10T01:39:03.993Z,101960.25
2018-09-10T01:41:31.671Z,101959.37
2018-09-10T01:43:59.336Z,101953.37
2018-09-10T01:46:27.029Z,101957.98
2018-09-10T01:48:54.692Z,101956.58
2018-09-10T01:51:22.408Z,101947.66
2018-09-10T01:53:50.081Z,101948.69
2018-09-10T01:56:17.770Z,101957.76
2018-09-10T01:58:45.472Z,101952.97
2018-09-10T02:01:13.150Z,101948.11
2018-09-10T02:03:40.820Z,101944.01
2018-09-10T02:06:08.504Z,101942.60
2018-09-10T02:08:36.196Z,101938.95
2018-09-10T02:11:04.347Z,101939.81
2018-09-10T02:13:32.078Z,101929.45
2018-09-10T02:15:59.753Z,101932.22
2018-09-10T02:18:27.433Z,101928.69
2018-09-10T02:20:55.106Z,101928.87
2018-09-10T02:23:22.765Z,101918.23
2018-09-10T02:25:50.469Z,101902.95
2018-09-10T02:28:18.442Z,101912.34
2018-09-10T02:30:46.114Z,101905.69
2018-09-10T02:33:13.788Z,101910.05
2018-09-10T02:35:41.474Z,101908.16
2018-09-10T02:38:09.214Z,101905.41
2018-09-10T02:40:36.929Z,101903.12
2018-09-10T02:43:05.231Z,101904.36
2018-09-10T02:45:32.910Z,101901.13
2018-09-10T02:48:00.585Z,101895.80
2018-09-10T02:50:28.657Z,101898.76
2018-09-10T02:52:56.355Z,101903.12
2018-09-10T02:55:24.085Z,101895.41
2018-09-10T02:57:51.766Z,101903.97
2018-09-10T03:00:23.945Z,101895.14
2018-09-10T03:02:52.224Z,101890.40
2018-09-10T03:05:19.930Z,101887.81
2018-09-10T03:07:47.627Z,101884.02
2018-09-10T03:10:15.307Z,101883.05
2018-09-10T03:12:42.985Z,101886.09
2018-09-10T03:15:10.677Z,101881.53
2018-09-10T03:17:38.364Z,101885.17
2018-09-10T03:20:06.176Z,101879.45
2018-09-10T03:22:33.858Z,101875.11
2018-09-10T03:25:01.547Z,101875.48
2018-09-10T03:27:29.249Z,101870.37
2018-09-10T03:29:57.008Z,101879.86
2018-09-10T03:32:24.696Z,101876.69
2018-09-10T03:34:52.402Z,101868.90
2018-09-10T03:37:20.087Z,101869.47
2018-09-10T03:39:47.767Z,101869.28
2018-09-10T03:42:15.446Z,101865.80
2018-09-10T03:44:43.459Z,101867.13
2018-09-10T03:47:11.215Z,101858.30
2018-09-10T03:49:38.908Z,101856.28
2018-09-10T03:52:06.615Z,101855.98
2018-09-10T03:54:34.286Z,101859.52
2018-09-10T03:57:01.965Z,101853.22
2018-09-10T03:59:29.647Z,101846.48
2018-09-10T04:01:57.638Z,101854.38
2018-09-10T04:04:25.568Z,101842.11
2018-09-10T04:06:53.295Z,101846.41
2018-09-10T04:09:20.997Z,101844.88
2018-09-10T04:11:48.687Z,101840.70
2018-09-10T04:14:16.416Z,101840.79
2018-09-10T04:16:44.106Z,101840.69
2018-09-10T04:19:11.876Z,101837.67
2018-09-10T04:21:39.551Z,101841.47
2018-09-10T04:24:07.390Z,101831.39
2018-09-10T04:26:35.088Z,101833.84
2018-09-10T04:29:02.826Z,101834.91
2018-09-10T04:31:30.631Z,101828.53
2018-09-10T04:33:58.310Z,101828.91
2018-09-10T04:36:26.017Z,101832.91
2018-09-10T04:38:53.831Z,101831.50
2018-09-10T04:41:21.513Z,101831.95
2018-09-10T04:43:49.472Z,101830.17
2018-09-10T04:46:17.159Z,101831.57
2018-09-10T04:48:44.833Z,101826.75
2018-09-10T04:51:12.640Z,101825.12
2018-09-10T04:53:40.312Z,101817.71
2018-09-10T04:56:08.007Z,101822.09
2018-09-10T04:58:35.686Z,101819.05
2018-09-10T05:01:03.475Z,101819.14
2018-09-10T05:03:31.227Z,101814.13
2018-09-10T05:05:59.149Z,101805.20
2018-09-10T05:08:26.837Z,101811.83
2018-09-10T05:10:54.587Z,101812.67
2018-09-10T05:13:22.295Z,101808.80
2018-09-10T05:15:50.111Z,101811.08
2018-09-10T05:18:17.918Z,101807.37
2018-09-10T05:20:45.621Z,101805.92
2018-09-10T05:23:13.588Z,101797.36
2018-09-10T05:25:41.271Z,101802.48
2018-09-10T05:28:09.128Z,101804.77
2018-09-10T05:30:36.827Z,101799.92
2018-09-10T05:33:04.539Z,101796.19
2018-09-10T05:35:32.287Z,101788.61
2018-09-10T05:37:59.994Z,101785.95
2018-09-10T05:40:27.809Z,101792.78
2018-09-10T05:42:55.490Z,101782.88
2018-09-10T05:45:23.282Z,101787.89
2018-09-10T05:47:51.098Z,101762.00
2018-09-10T05:50:18.773Z,101788.23
2018-09-10T05:52:46.460Z,101787.27
2018-09-10T05:55:14.192Z,101785.48
2018-09-10T05:57:42.019Z,101789.65
2018-09-10T06:00:10.213Z,101775.01
2018-09-10T06:02:37.993Z,101777.09
2018-09-10T06:05:05.866Z,101774.22
2018-09-10T06:07:33.640Z,101771.35
2018-09-10T06:10:01.309Z,101776.22
2018-09-10T06:12:29.107Z,101782.75
2018-09-10T06:14:56.826Z,101784.54
2018-09-10T06:17:24.490Z,101784.05
2018-09-10T06:19:52.503Z,101784.83
2018-09-10T06:22:20.721Z,101778.05
2018-09-10T06:24:48.398Z,101778.71
2018-09-10T06:27:16.218Z,101732.58
2018-09-10T06:29:43.931Z,101772.80
2018-09-10T06:32:11.565Z,101780.46
2018-09-10T06:34:39.233Z,101780.00
2018-09-10T06:37:07.035Z,101782.55
2018-09-10T06:39:34.717Z,101772.92
2018-09-10T06:42:02.741Z,101780.33
2018-09-10T06:44:30.665Z,101772.13
2018-09-10T06:46:58.317Z,101768.50
2018-09-10T06:49:26.098Z,101762.22
2018-09-10T06:51:53.771Z,101762.97
2018-09-10T06:54:21.415Z,101764.09
2018-09-10T06:56:49.103Z,101762.08
2018-09-10T06:59:16.754Z,101755.30
2018-09-10T07:01:44.429Z,101754.34
2018-09-10T07:04:12.082Z,101756.23
2018-09-10T07:06:39.748Z,101753.98
2018-09-10T07:09:08.755Z,101755.09
2018-09-10T07:11:36.993Z,101751.34
2018-09-10T07:14:04.695Z,101762.37
2018-09-10T07:16:32.366Z,101756.45
2018-09-10T07:19:00.068Z,101752.37
2018-09-10T07:21:27.714Z,101755.66
2018-09-10T07:23:55.369Z,101751.72
2018-09-10T07:26:23.056Z,101748.91
2018-09-10T07:28:50.722Z,101748.63
2018-09-10T07:31:18.522Z,101744.56
2018-09-10T07:33:46.488Z,101741.89
2018-09-10T07:36:14.182Z,101740.72
2018-09-10T07:38:41.838Z,101739.66
2018-09-10T07:41:09.579Z,101744.28
2018-09-10T07:43:37.445Z,101740.87
2018-09-10T07:46:05.518Z,101738.94
2018-09-10T07:48:33.221Z,101738.76
2018-09-10T07:51:00.942Z,101734.16
2018-09-10T07:53:28.636Z,101734.91
2018-09-10T07:55:57.232Z,101738.19
2018-09-10T07:58:24.949Z,101728.04
2018-09-10T08:00:52.950Z,101726.02
2018-09-10T08:03:20.717Z,101723.86
2018-09-10T08:05:48.409Z,101729.94
2018-09-10T08:08:16.124Z,101725.34
2018-09-10T08:10:43.837Z,101723.32
2018-09-10T08:13:11.538Z,101725.12
2018-09-10T08:15:39.237Z,101722.23
2018-09-10T08:18:06.929Z,101716.30
2018-09-10T08:20:34.639Z,101708.44
2018-09-10T08:23:02.347Z,101712.20
2018-09-10T08:25:30.053Z,101711.97
2018-09-10T08:27:57.744Z,101711.65
2018-09-10T08:30:25.457Z,101697.71
2018-09-10T08:32:53.180Z,101700.15
2018-09-10T08:35:20.886Z,101696.25
2018-09-10T08:37:48.625Z,101695.18
2018-09-10T08:40:16.336Z,101696.38
2018-09-10T08:42:44.075Z,101696.97
2018-09-10T08:45:11.761Z,101700.10
2018-09-10T08:47:39.476Z,101701.34
2018-09-10T08:50:08.211Z,101693.33
2018-09-10T08:52:36.068Z,101691.50
2018-09-10T08:55:04.167Z,101696.37
2018-09-10T08:57:31.729Z,101691.03
2018-09-10T08:59:59.544Z,101695.77
2018-09-10T09:02:27.317Z,101691.17
2018-09-10T09:04:55.083Z,101686.70
2018-09-10T09:07:22.792Z,101687.80
2018-09-10T09:09:50.612Z,101675.55
2018-09-10T09:12:18.301Z,101677.79
2018-09-10T09:14:46.008Z,101673.08
2018-09-10T09:17:13.927Z,101678.16
2018-09-10T09:19:41.646Z,101674.28
2018-09-10T09:22:09.350Z,101674.65
2018-09-10T09:24:37.113Z,101666.04
2018-09-10T09:27:04.907Z,101664.00
2018-09-10T09:29:32.622Z,101658.52
2018-09-10T09:32:00.430Z,101653.78
2018-09-10T09:34:32.618Z,101656.45
2018-09-10T09:37:05.921Z,101655.61
2018-09-10T09:39:39.096Z,101652.34
2018-09-10T09:42:12.381Z,101650.14
2018-09-10T09:44:45.578Z,101640.56
2018-09-10T09:47:13.354Z,101643.10
2018-09-10T09:49:41.010Z,101628.88
2018-09-10T09:52:08.698Z,101635.09
2018-09-10T09:54:36.414Z,101631.69
2018-09-10T09:57:04.169Z,101630.95
2018-09-10T09:59:31.852Z,101633.02
2018-09-10T10:02:05.044Z,101631.33
2018-09-10T10:04:32.885Z,101626.34
2018-09-10T10:07:00.535Z,101627.55
2018-09-10T10:09:28.237Z,101586.00
2018-09-10T10:11:56.018Z,101621.01
2018-09-10T10:14:23.697Z,101616.77
2018-09-10T10:16:51.353Z,101622.71
2018-09-10T10:19:19.047Z,101613.13
2018-09-10T10:21:46.857Z,101605.95
2018-09-10T10:24:14.552Z,101612.63
2018-09-10T10:26:42.253Z,101605.09
2018-09-10T10:29:09.943Z,101596.61
2018-09-10T10:31:37.652Z,101593.20
2018-09-10T10:34:05.354Z,101594.17
2018-09-10T10:36:33.175Z,101582.75
2018-09-10T10:39:01.734Z,101581.91
2018-09-10T10:41:29.424Z,101577.07
2018-09-10T10:43:57.230Z,101582.03
2018-09-10T10:46:24.912Z,101572.23
2018-09-10T10:48:52.609Z,101568.21
2018-09-10T10:51:20.415Z,101568.72
2018-09-10T10:53:48.170Z,101556.92
2018-09-10T10:56:15.818Z,101556.56
2018-09-10T10:58:43.505Z,101552.80
2018-09-10T11:01:11.330Z,101554.25
2018-09-10T11:03:39.015Z,101540.55
2018-09-10T11:06:06.825Z,101542.34
2018-09-10T11:08:34.536Z,101543.33
2018-09-10T11:11:02.238Z,101539.56
2018-09-10T11:13:29.938Z,101533.38
2018-09-10T11:15:57.664Z,101532.05
2018-09-10T11:18:25.440Z,101535.66
2018-09-10T11:20:53.144Z,101525.48
2018-09-10T11:23:20.832Z,101525.84
2018-09-10T11:25:48.530Z,101530.08
2018-09-10T11:28:16.234Z,101509.89
2018-09-10T11:30:43.952Z,101519.75
2018-09-10T11:33:11.671Z,101513.68
2018-09-10T11:35:39.354Z,101514.66
2018-09-10T11:38:07.145Z,101508.34
2018-09-10T11:40:34.850Z,101510.50
2018-09-10T11:43:02.553Z,101503.46
2018-09-10T11:45:30.256Z,101508.55
2018-09-10T11:47:57.940Z,101507.37
2018-09-10T11:50:25.637Z,101492.16
2018-09-10T11:52:53.293Z,101501.87
2018-09-10T11:55:21.317Z,101496.17
2018-09-10T11:57:48.985Z,101495.56
2018-09-10T12:00:16.702Z,101499.45
2018-09-10T12:02:44.332Z,101496.78
2018-09-10T12:05:12.023Z,101491.80
2018-09-10T12:07:39.665Z,101487.07
2018-09-10T12:10:07.396Z,101493.86
2018-09-10T12:12:35.108Z,101488.26
2018-09-10T12:15:04.406Z,101478.29
2018-09-10T12:17:32.085Z,101485.11
2018-09-10T12:19:59.873Z,101487.38
2018-09-10T12:22:27.538Z,101478.75
2018-09-10T12:24:55.189Z,101474.48
2018-09-10T12:27:22.891Z,101475.09
2018-09-10T12:29:50.542Z,101462.55
2018-09-10T12:32:18.296Z,101463.16
2018-09-10T12:34:45.918Z,101459.86
2018-09-10T12:37:13.575Z,101448.70
2018-09-10T12:39:41.234Z,101459.97
2018-09-10T12:42:08.847Z,101446.95
2018-09-10T12:44:36.448Z,101440.27
2018-09-10T12:47:04.096Z,101443.70
2018-09-10T12:49:31.771Z,101440.78
2018-09-10T12:51:59.407Z,101439.72
2018-09-10T12:54:27.411Z,101439.14
2018-09-10T12:56:55.053Z,101431.23
2018-09-10T12:59:22.671Z,101427.84
2018-09-10T13:01:50.282Z,101430.41
2018-09-10T13:04:17.955Z,101428.81
2018-09-10T13:06:45.576Z,101423.10
2018-09-10T13:09:13.211Z,101427.73
2018-09-10T13:11:40.835Z,101422.84
2018-09-10T13:14:08.452Z,101412.15
2018-09-10T13:16:36.089Z,101410.81
2018-09-10T13:19:03.768Z,101407.88
2018-09-10T13:21:31.406Z,101412.05
2018-09-10T13:23:59.390Z,101395.55
2018-09-10T13:26:27.008Z,101397.70
2018-09-10T13:28:54.618Z,101395.39
2018-09-10T13:31:22.255Z,101381.81
2018-09-10T13:33:49.954Z,101388.50
2018-09-10T13:36:17.895Z,101380.48
2018-09-10T13:38:45.553Z,101379.61
2018-09-10T13:41:13.157Z,101380.97
2018-09-10T13:43:41.063Z,101389.61
2018-09-10T13:46:08.710Z,101382.81
2018-09-10T13:48:36.569Z,101373.91
2018-09-10T13:51:04.197Z,101370.63
2018-09-10T13:53:31.814Z,101365.80
2018-09-10T13:55:59.624Z,101366.03
2018-09-10T13:58:27.252Z,101364.22
2018-09-10T14:00:55.178Z,101362.05
2018-09-10T14:03:22.809Z,101357.89
2018-09-10T14:05:50.464Z,101353.88
2018-09-10T14:08:18.108Z,101350.47
2018-09-10T14:10:45.797Z,101346.81
2018-09-10T14:13:13.400Z,101351.30
2018-09-10T14:15:41.068Z,101352.42
2018-09-10T14:18:08.694Z,101347.55
2018-09-10T14:20:36.349Z,101347.81
2018-09-10T14:23:04.023Z,101332.75
2018-09-10T14:25:31.670Z,101333.11
2018-09-10T14:27:59.652Z,101318.13
2018-09-10T14:30:27.373Z,101327.17
2018-09-10T14:32:55.091Z,101314.91
2018-09-10T14:35:22.740Z,101314.49
2018-09-10T14:37:50.367Z,101317.70
2018-09-10T14:40:18.021Z,101305.89
2018-09-10T14:42:45.733Z,101295.46
2018-09-10T14:45:13.367Z,101287.98
2018-09-10T14:47:41.046Z,101290.83
2018-09-10T14:50:08.737Z,101284.82
2018-09-10T14:52:36.428Z,101275.74
2018-09-10T14:55:04.627Z,101276.36
2018-09-10T14:57:32.246Z,101272.56
2018-09-10T14:59:59.910Z,101280.89
2018-09-10T15:02:27.551Z,101270.77
2018-09-10T15:04:55.180Z,101268.88
2018-09-10T15:07:22.847Z,101265.05
2018-09-10T15:09:50.504Z,101267.56
2018-09-10T15:12:18.467Z,101271.84
2018-09-10T15:14:46.121Z,101257.33
2018-09-10T15:17:13.810Z,101263.02
2018-09-10T15:19:41.430Z,101262.67
2018-09-10T15:22:09.091Z,101261.84
2018-09-10T15:24:36.728Z,101258.67
2018-09-10T15:27:04.394Z,101251.06
2018-09-10T15:29:32.251Z,101244.66
2018-09-10T15:31:59.882Z,101242.70
2018-09-10T15:34:27.882Z,101242.41
2018-09-10T15:36:55.486Z,101235.21
2018-09-10T15:39:23.165Z,101222.02
2018-09-10T15:41:51.186Z,101219.22
2018-09-10T15:44:18.831Z,101216.67
2018-09-10T15:46:46.541Z,101220.72
2018-09-10T15:49:14.185Z,101208.59
2018-09-10T15:51:41.820Z,101200.33
2018-09-10T15:54:09.440Z,101189.80
2018-09-10T15:56:37.118Z,101199.87
2018-09-10T15:59:04.940Z,101191.43
2018-09-10T16:01:32.591Z,101186.95
2018-09-10T16:04:00.261Z,101149.98
2018-09-10T16:06:27.930Z,101179.36
2018-09-10T16:08:55.546Z,101182.56
2018-09-10T16:11:23.171Z,101174.92
2018-09-10T16:13:51.160Z,101175.90
2018-09-10T16:16:18.825Z,101168.50
2018-09-10T16:18:46.479Z,101174.66
2018-09-10T16:21:14.460Z,101162.92
2018-09-10T16:23:42.070Z,101163.52
2018-09-10T16:26:09.777Z,101163.78
2018-09-10T16:28:37.401Z,101159.09
2018-09-10T16:31:05.508Z,101152.55
2018-09-10T16:33:33.213Z,101151.57
2018-09-10T16:36:01.186Z,101147.02
2018-09-10T16:38:28.829Z,101154.89
2018-09-10T16:40:56.506Z,101146.78
2018-09-10T16:43:24.443Z,101146.15
2018-09-10T16:45:52.092Z,101154.09
2018-09-10T16:48:20.055Z,101156.09
2018-09-10T16:50:47.757Z,101148.08
2018-09-10T16:53:15.768Z,101137.83
2018-09-10T16:55:43.439Z,101147.42
2018-09-10T16:58:11.123Z,101139.98
2018-09-10T17:00:39.042Z,101135.92
2018-09-10T17:03:06.942Z,101122.06
2018-09-10T17:05:34.737Z,101132.62
2018-09-10T17:08:02.371Z,101130.30
2018-09-10T17:10:30.093Z,101127.98
2018-09-10T17:12:57.747Z,101123.77
2018-09-10T17:15:25.388Z,101134.46
2018-09-10T17:17:53.307Z,101141.67
2018-09-10T17:20:21.051Z,101135.05
2018-09-10T17:22:48.727Z,101140.48
2018-09-10T17:25:16.315Z,101139.45
2018-09-10T17:27:44.496Z,101137.92
2018-09-10T17:30:12.188Z,101132.54
2018-09-10T17:32:40.211Z,101139.22
2018-09-10T17:35:07.851Z,101145.92
2018-09-10T17:37:35.486Z,101143.94
2018-09-10T17:40:03.234Z,101138.59
2018-09-10T17:42:31.234Z,101134.03
2018-09-10T17:44:58.891Z,101141.34
2018-09-10T17:47:26.661Z,101133.31
2018-09-10T17:49:54.329Z,101125.70
2018-09-10T17:52:21.986Z,101115.25
2018-09-10T17:54:49.628Z,101119.61
2018-09-10T17:57:17.359Z,101127.57
2018-09-10T17:59:45.251Z,101117.02
2018-09-10T18:02:12.891Z,101126.97
2018-09-10T18:04:40.524Z,101127.45
2018-09-10T18:07:08.197Z,101118.15
2018-09-10T18:09:35.863Z,101134.14
2018-09-10T18:12:03.527Z,101137.89
2018-09-10T18:14:31.536Z,101140.81
2018-09-10T18:16:59.173Z,101140.91
2018-09-10T18:19:26.820Z,101149.41
2018-09-10T18:21:54.743Z,101153.64
2018-09-10T18:24:22.400Z,101131.67
2018-09-10T18:26:50.043Z,101136.33
2018-09-10T18:29:17.698Z,101129.18
2018-09-10T18:31:45.468Z,101128.20
2018-09-10T18:34:13.090Z,101128.31
2018-09-10T18:36:40.819Z,101125.06
2018-09-10T18:39:09.519Z,101133.18
2018-09-10T18:41:37.144Z,101127.11
2018-09-10T18:44:04.775Z,101133.49
2018-09-10T18:46:32.422Z,101133.13
2018-09-10T18:49:00.428Z,101128.95
2018-09-10T18:51:28.121Z,101133.06
2018-09-10T18:53:55.767Z,101121.79
2018-09-10T18:56:23.452Z,101121.50
2018-09-10T18:58:51.097Z,101114.96
2018-09-10T19:01:18.908Z,101108.42
2018-09-10T19:03:46.792Z,101110.14
2018-09-10T19:06:14.511Z,101101.77
2018-09-10T19:08:42.126Z,101105.64
2018-09-10T19:11:09.790Z,101105.16
2018-09-10T19:13:37.396Z,101100.82
2018-09-10T19:16:05.394Z,101091.24
2018-09-10T19:18:38.973Z,101098.37
2018-09-10T19:21:07.185Z,101091.61
2018-09-10T19:23:35.621Z,101101.13
2018-09-10T19:26:03.654Z,101107.69
2018-09-10T19:28:31.311Z,101102.09
2018-09-10T19:30:59.133Z,101098.38
2018-09-10T19:33:26.790Z,101104.60
2018-09-10T19:35:54.427Z,101104.80
2018-09-10T19:38:22.135Z,101108.42
2018-09-10T19:40:50.115Z,101115.20
2018-09-10T19:43:17.761Z,101101.87
2018-09-10T19:45:45.416Z,101100.06
2018-09-10T19:48:13.071Z,101096.15
2018-09-10T19:50:40.762Z,101095.08
2018-09-10T19:53:08.667Z,101091.81
2018-09-10T19:55:36.299Z,101086.73
2018-09-10T19:58:04.000Z,101080.05
2018-09-10T20:00:31.656Z,101083.57
2018-09-10T20:02:59.594Z,101076.92
2018-09-10T20:05:27.226Z,101080.41
2018-09-10T20:07:55.079Z,101051.84
2018-09-10T20:10:22.702Z,101083.66
2018-09-10T20:12:50.384Z,101086.73
2018-09-10T20:15:18.379Z,101078.47
2018-09-10T20:17:46.042Z,101074.06
2018-09-10T20:20:13.679Z,101077.86
2018-09-10T20:22:41.361Z,101077.39
2018-09-10T20:25:09.334Z,101085.64
2018-09-10T20:27:37.066Z,101090.55
2018-09-10T20:30:05.111Z,101090.26
2018-09-10T20:32:32.755Z,101096.17
2018-09-10T20:35:00.526Z,101094.78
2018-09-10T20:37:28.169Z,101088.50
2018-09-10T20:39:55.807Z,101080.52
2018-09-10T20:42:23.459Z,101092.05
2018-09-10T20:44:51.090Z,101086.77
2018-09-10T20:47:18.851Z,101090.90
2018-09-10T20:49:46.500Z,101077.42
2018-09-10T20:52:14.166Z,101083.66
2018-09-10T20:54:41.783Z,101077.83
2018-09-10T20:57:09.424Z,101078.29
2018-09-10T20:59:37.044Z,101075.65
2018-09-10T21:02:04.766Z,101082.55
2018-09-10T21:04:32.393Z,101074.32
2018-09-10T21:07:00.012Z,101079.53
2018-09-10T21:09:27.770Z,101079.81
2018-09-10T21:11:55.696Z,101075.54
2018-09-10T21:14:23.326Z,101076.06
2018-09-10T21:16:50.975Z,101083.16
2018-09-10T21:19:19.152Z,101076.60
2018-09-10T21:21:46.786Z,101082.62
2018-09-10T21:24:14.452Z,101083.17
2018-09-10T21:26:42.101Z,101072.45
2018-09-10T21:29:09.729Z,101073.68
2018-09-10T21:31:37.462Z,101071.73
2018-09-10T21:34:05.183Z,101071.68
2018-09-10T21:36:32.795Z,101065.27
2018-09-10T21:39:00.438Z,101075.22
2018-09-10T21:41:28.087Z,101069.58
2018-09-10T21:43:55.811Z,101074.16
2018-09-10T21:46:23.450Z,101077.26
2018-09-10T21:48:51.082Z,101069.72
2018-09-10T21:51:18.731Z,101074.10
2018-09-10T21:53:46.454Z,101063.69
2018-09-10T21:56:14.139Z,101071.13
2018-09-10T21:58:41.770Z,101065.55
2018-09-10T22:01:09.541Z,101063.17
2018-09-10T22:03:37.158Z,101066.81
2018-09-10T22:06:04.790Z,101073.87
2018-09-10T22:08:32.546Z,101075.06
2018-09-10T22:11:00.151Z,101061.51
2018-09-10T22:13:27.818Z,101081.41
2018-09-10T22:15:55.478Z,101085.17
2018-09-10T22:18:23.090Z,101079.91
2018-09-10T22:20:50.730Z,101087.67
2018-09-10T22:23:18.472Z,101090.47
2018-09-10T22:25:46.109Z,101085.33
2018-09-10T22:28:13.732Z,101090.64
2018-09-10T22:30:41.349Z,101084.76
2018-09-10T22:33:08.966Z,101088.98
2018-09-10T22:35:36.586Z,101092.83
2018-09-10T22:38:04.302Z,101087.31
2018-09-10T22:40:31.936Z,101090.16
2018-09-10T22:42:59.566Z,101097.11
2018-09-10T22:45:27.177Z,101091.04
2018-09-10T22:47:54.800Z,101089.09
2018-09-10T22:50:22.495Z,101090.84
2018-09-10T22:52:50.095Z,101084.48
2018-09-10T22:55:17.696Z,101090.63
2018-09-10T22:57:45.310Z,101088.06
2018-09-10T23:00:13.083Z,101089.11
2018-09-10T23:02:40.724Z,101089.81
2018-09-10T23:05:08.372Z,101088.39
2018-09-10T23:07:36.020Z,101079.80
2018-09-10T23:10:03.961Z,101086.80
2018-09-10T23:12:31.590Z,101085.17
2018-09-10T23:14:59.204Z,101086.48
2018-09-10T23:17:26.834Z,101080.81
2018-09-10T23:19:54.467Z,101081.02
2018-09-10T23:22:22.083Z,101084.47
2018-09-10T23:24:49.678Z,101085.21
2018-09-10T23:27:17.296Z,101083.09
2018-09-10T23:29:44.904Z,101076.77
2018-09-10T23:32:12.510Z,101085.09
2018-09-10T23:34:40.170Z,101089.15
2018-09-10T23:37:07.796Z,101090.77
2018-09-10T23:39:35.446Z,101094.91
2018-09-10T23:42:03.092Z,101091.52
2018-09-10T23:44:30.778Z,101088.88
2018-09-10T23:46:58.388Z,101079.94
2018-09-10T23:49:25.987Z,101071.76
2018-09-10T23:51:53.629Z,101076.38
2018-09-10T23:54:21.399Z,101072.14
2018-09-10T23:56:49.010Z,101080.31
2018-09-10T23:59:16.630Z,101085.04
